sensor_id;sensor_type;location;lat;lon;timestamp;P1;durP1;ratioP1;P2;durP2;ratioP2
8831;SDS011;4452;50.756;4.472;2023-08-31T00:02:13;3.90;;;2.78;;
8831;SDS011;4452;50.756;4.472;2023-08-31T00:04:38;4.38;;;3.03;;
8831;SDS011;4452;50.756;4.472;2023-08-31T00:07:04;3.20;;;2.88;;
8831;SDS011;4452;50.756;4.472;2023-08-31T00:09:30;4.70;;;3.70;;
8831;SDS011;4452;50.756;4.472;2023-08-31T00:11:56;9.25;;;3.90;;
8831;SDS011;4452;50.756;4.472;2023-08-31T00:14:22;4.88;;;3.63;;
8831;SDS011;4452;50.756;4.472;2023-08-31T00:16:49;7.82;;;2.70;;
8831;SDS011;4452;50.756;4.472;2023-08-31T00:19:15;5.88;;;3.85;;
8831;SDS011;4452;50.756;4.472;2023-08-31T00:21:41;4.63;;;4.22;;
8831;SDS011;4452;50.756;4.472;2023-08-31T00:24:08;5.05;;;4.35;;
8831;SDS011;4452;50.756;4.472;2023-08-31T00:26:35;9.68;;;5.28;;
8831;SDS011;4452;50.756;4.472;2023-08-31T00:29:06;6.40;;;4.40;;
8831;SDS011;4452;50.756;4.472;2023-08-31T00:31:34;13.02;;;5.70;;
8831;SDS011;4452;50.756;4.472;2023-08-31T00:34:00;7.32;;;4.63;;
8831;SDS011;4452;50.756;4.472;2023-08-31T00:36:32;11.63;;;4.70;;
8831;SDS011;4452;50.756;4.472;2023-08-31T00:39:02;5.18;;;4.68;;
8831;SDS011;4452;50.756;4.472;2023-08-31T00:41:31;4.05;;;2.95;;
8831;SDS011;4452;50.756;4.472;2023-08-31T00:43:57;7.00;;;4.18;;
8831;SDS011;4452;50.756;4.472;2023-08-31T00:46:23;7.63;;;5.35;;
8831;SDS011;4452;50.756;4.472;2023-08-31T00:48:49;10.40;;;5.40;;
8831;SDS011;4452;50.756;4.472;2023-08-31T00:51:15;8.15;;;5.20;;
8831;SDS011;4452;50.756;4.472;2023-08-31T00:53:40;4.57;;;4.05;;
8831;SDS011;4452;50.756;4.472;2023-08-31T00:56:07;6.43;;;3.80;;
8831;SDS011;4452;50.756;4.472;2023-08-31T00:58:33;8.70;;;5.20;;
8831;SDS011;4452;50.756;4.472;2023-08-31T01:12:04;5.28;;;4.30;;
8831;SDS011;4452;50.756;4.472;2023-08-31T01:14:56;7.68;;;4.60;;
8831;SDS011;4452;50.756;4.472;2023-08-31T01:17:28;6.18;;;4.25;;
8831;SDS011;4452;50.756;4.472;2023-08-31T01:19:57;7.63;;;4.75;;
8831;SDS011;4452;50.756;4.472;2023-08-31T01:25:05;10.52;;;4.60;;
8831;SDS011;4452;50.756;4.472;2023-08-31T01:27:34;15.82;;;4.93;;
8831;SDS011;4452;50.756;4.472;2023-08-31T01:30:01;5.78;;;4.05;;
8831;SDS011;4452;50.756;4.472;2023-08-31T01:32:29;6.82;;;4.38;;
8831;SDS011;4452;50.756;4.472;2023-08-31T01:34:55;5.57;;;3.95;;
8831;SDS011;4452;50.756;4.472;2023-08-31T01:37:38;7.85;;;4.97;;
8831;SDS011;4452;50.756;4.472;2023-08-31T01:43:14;8.70;;;4.72;;
8831;SDS011;4452;50.756;4.472;2023-08-31T01:45:42;10.70;;;4.60;;
8831;SDS011;4452;50.756;4.472;2023-08-31T01:48:08;8.77;;;5.05;;
8831;SDS011;4452;50.756;4.472;2023-08-31T01:50:35;12.35;;;4.47;;
8831;SDS011;4452;50.756;4.472;2023-08-31T01:53:00;6.28;;;4.13;;
8831;SDS011;4452;50.756;4.472;2023-08-31T01:55:26;10.88;;;3.95;;
8831;SDS011;4452;50.756;4.472;2023-08-31T01:57:52;14.27;;;5.07;;
8831;SDS011;4452;50.756;4.472;2023-08-31T02:00:18;5.72;;;4.68;;
8831;SDS011;4452;50.756;4.472;2023-08-31T02:02:44;7.00;;;4.78;;
8831;SDS011;4452;50.756;4.472;2023-08-31T02:05:09;6.80;;;4.60;;
8831;SDS011;4452;50.756;4.472;2023-08-31T02:07:35;12.20;;;4.93;;
8831;SDS011;4452;50.756;4.472;2023-08-31T02:10:02;11.25;;;4.82;;
8831;SDS011;4452;50.756;4.472;2023-08-31T02:12:31;12.13;;;5.45;;
8831;SDS011;4452;50.756;4.472;2023-08-31T02:14:57;11.07;;;5.78;;
8831;SDS011;4452;50.756;4.472;2023-08-31T02:17:23;7.90;;;5.10;;
8831;SDS011;4452;50.756;4.472;2023-08-31T02:19:50;8.70;;;4.35;;
8831;SDS011;4452;50.756;4.472;2023-08-31T02:22:16;10.00;;;4.90;;
8831;SDS011;4452;50.756;4.472;2023-08-31T02:24:42;10.80;;;5.70;;
8831;SDS011;4452;50.756;4.472;2023-08-31T02:27:08;10.10;;;5.43;;
8831;SDS011;4452;50.756;4.472;2023-08-31T02:29:33;10.85;;;4.68;;
8831;SDS011;4452;50.756;4.472;2023-08-31T02:31:59;9.60;;;5.07;;
8831;SDS011;4452;50.756;4.472;2023-08-31T02:34:25;13.70;;;6.22;;
8831;SDS011;4452;50.756;4.472;2023-08-31T02:36:51;8.43;;;4.30;;
8831;SDS011;4452;50.756;4.472;2023-08-31T02:39:16;11.77;;;5.10;;
8831;SDS011;4452;50.756;4.472;2023-08-31T02:41:42;10.15;;;4.88;;
8831;SDS011;4452;50.756;4.472;2023-08-31T02:44:08;10.57;;;4.60;;
8831;SDS011;4452;50.756;4.472;2023-08-31T02:46:33;6.20;;;3.60;;
8831;SDS011;4452;50.756;4.472;2023-08-31T02:48:59;10.20;;;3.45;;
8831;SDS011;4452;50.756;4.472;2023-08-31T02:51:25;12.18;;;4.78;;
8831;SDS011;4452;50.756;4.472;2023-08-31T02:53:50;9.40;;;3.72;;
8831;SDS011;4452;50.756;4.472;2023-08-31T02:56:18;9.00;;;4.90;;
8831;SDS011;4452;50.756;4.472;2023-08-31T02:58:44;7.75;;;4.35;;
8831;SDS011;4452;50.756;4.472;2023-08-31T03:01:10;7.50;;;4.70;;
8831;SDS011;4452;50.756;4.472;2023-08-31T03:03:40;6.13;;;3.95;;
8831;SDS011;4452;50.756;4.472;2023-08-31T03:06:07;8.85;;;4.68;;
8831;SDS011;4452;50.756;4.472;2023-08-31T03:08:34;10.18;;;4.50;;
8831;SDS011;4452;50.756;4.472;2023-08-31T03:11:02;8.95;;;4.63;;
8831;SDS011;4452;50.756;4.472;2023-08-31T03:13:29;12.55;;;4.35;;
8831;SDS011;4452;50.756;4.472;2023-08-31T03:15:55;11.63;;;4.25;;
8831;SDS011;4452;50.756;4.472;2023-08-31T03:18:21;10.93;;;5.13;;
8831;SDS011;4452;50.756;4.472;2023-08-31T03:20:47;8.27;;;3.83;;
8831;SDS011;4452;50.756;4.472;2023-08-31T03:23:13;8.60;;;3.97;;
8831;SDS011;4452;50.756;4.472;2023-08-31T03:25:39;8.95;;;4.22;;
8831;SDS011;4452;50.756;4.472;2023-08-31T03:28:05;8.85;;;4.40;;
8831;SDS011;4452;50.756;4.472;2023-08-31T03:30:31;9.65;;;3.90;;
8831;SDS011;4452;50.756;4.472;2023-08-31T03:32:57;6.25;;;4.43;;
8831;SDS011;4452;50.756;4.472;2023-08-31T03:35:23;9.70;;;4.63;;
8831;SDS011;4452;50.756;4.472;2023-08-31T03:37:55;11.07;;;4.18;;
8831;SDS011;4452;50.756;4.472;2023-08-31T03:40:23;6.60;;;4.57;;
8831;SDS011;4452;50.756;4.472;2023-08-31T03:42:52;8.80;;;4.25;;
8831;SDS011;4452;50.756;4.472;2023-08-31T03:45:20;10.30;;;4.90;;
8831;SDS011;4452;50.756;4.472;2023-08-31T03:47:49;9.30;;;4.85;;
8831;SDS011;4452;50.756;4.472;2023-08-31T03:50:16;9.38;;;4.47;;
8831;SDS011;4452;50.756;4.472;2023-08-31T03:52:42;6.35;;;3.80;;
8831;SDS011;4452;50.756;4.472;2023-08-31T03:55:08;4.78;;;4.18;;
8831;SDS011;4452;50.756;4.472;2023-08-31T03:57:34;10.00;;;4.50;;
8831;SDS011;4452;50.756;4.472;2023-08-31T03:59:59;8.57;;;4.60;;
8831;SDS011;4452;50.756;4.472;2023-08-31T04:02:25;8.15;;;3.85;;
8831;SDS011;4452;50.756;4.472;2023-08-31T04:04:51;9.85;;;4.35;;
8831;SDS011;4452;50.756;4.472;2023-08-31T04:07:16;9.52;;;4.22;;
8831;SDS011;4452;50.756;4.472;2023-08-31T04:09:42;8.90;;;4.82;;
8831;SDS011;4452;50.756;4.472;2023-08-31T04:12:08;10.13;;;4.53;;
8831;SDS011;4452;50.756;4.472;2023-08-31T04:14:33;7.82;;;3.95;;
8831;SDS011;4452;50.756;4.472;2023-08-31T04:16:59;8.40;;;4.30;;
8831;SDS011;4452;50.756;4.472;2023-08-31T04:19:25;9.65;;;4.18;;
8831;SDS011;4452;50.756;4.472;2023-08-31T04:21:51;11.05;;;4.22;;
8831;SDS011;4452;50.756;4.472;2023-08-31T04:24:16;5.65;;;3.60;;
8831;SDS011;4452;50.756;4.472;2023-08-31T04:26:42;5.78;;;3.60;;
8831;SDS011;4452;50.756;4.472;2023-08-31T04:29:09;6.93;;;2.63;;
8831;SDS011;4452;50.756;4.472;2023-08-31T04:31:35;8.80;;;4.40;;
8831;SDS011;4452;50.756;4.472;2023-08-31T04:34:01;9.85;;;5.25;;
8831;SDS011;4452;50.756;4.472;2023-08-31T04:36:27;5.10;;;3.42;;
8831;SDS011;4452;50.756;4.472;2023-08-31T04:38:53;4.68;;;3.83;;
8831;SDS011;4452;50.756;4.472;2023-08-31T04:41:18;8.48;;;4.25;;
8831;SDS011;4452;50.756;4.472;2023-08-31T04:43:44;10.70;;;5.00;;
8831;SDS011;4452;50.756;4.472;2023-08-31T04:46:13;10.20;;;5.70;;
8831;SDS011;4452;50.756;4.472;2023-08-31T04:48:39;6.68;;;4.10;;
8831;SDS011;4452;50.756;4.472;2023-08-31T04:51:04;7.40;;;3.63;;
8831;SDS011;4452;50.756;4.472;2023-08-31T04:53:30;10.95;;;5.50;;
8831;SDS011;4452;50.756;4.472;2023-08-31T04:55:56;11.80;;;5.55;;
8831;SDS011;4452;50.756;4.472;2023-08-31T04:58:22;13.13;;;5.68;;
8831;SDS011;4452;50.756;4.472;2023-08-31T05:00:48;15.20;;;5.95;;
8831;SDS011;4452;50.756;4.472;2023-08-31T05:03:14;10.88;;;5.63;;
8831;SDS011;4452;50.756;4.472;2023-08-31T05:05:40;19.23;;;6.60;;
8831;SDS011;4452;50.756;4.472;2023-08-31T05:08:07;12.38;;;5.70;;
8831;SDS011;4452;50.756;4.472;2023-08-31T05:10:33;12.30;;;5.75;;
8831;SDS011;4452;50.756;4.472;2023-08-31T05:12:59;6.30;;;3.50;;
8831;SDS011;4452;50.756;4.472;2023-08-31T05:15:25;9.30;;;5.55;;
8831;SDS011;4452;50.756;4.472;2023-08-31T05:17:53;11.85;;;6.13;;
8831;SDS011;4452;50.756;4.472;2023-08-31T05:20:19;13.80;;;5.68;;
8831;SDS011;4452;50.756;4.472;2023-08-31T05:22:47;10.25;;;4.90;;
8831;SDS011;4452;50.756;4.472;2023-08-31T05:25:13;12.13;;;5.80;;
8831;SDS011;4452;50.756;4.472;2023-08-31T05:27:38;21.42;;;6.32;;
8831;SDS011;4452;50.756;4.472;2023-08-31T05:30:04;12.75;;;4.80;;
8831;SDS011;4452;50.756;4.472;2023-08-31T05:32:30;11.02;;;5.95;;
8831;SDS011;4452;50.756;4.472;2023-08-31T05:34:56;15.48;;;6.60;;
8831;SDS011;4452;50.756;4.472;2023-08-31T05:37:23;15.05;;;5.65;;
8831;SDS011;4452;50.756;4.472;2023-08-31T05:39:49;13.15;;;6.10;;
8831;SDS011;4452;50.756;4.472;2023-08-31T05:42:16;7.97;;;4.97;;
8831;SDS011;4452;50.756;4.472;2023-08-31T05:44:41;17.60;;;5.68;;
8831;SDS011;4452;50.756;4.472;2023-08-31T05:47:07;12.75;;;6.15;;
8831;SDS011;4452;50.756;4.472;2023-08-31T05:49:33;17.60;;;5.55;;
8831;SDS011;4452;50.756;4.472;2023-08-31T05:51:58;18.55;;;6.68;;
8831;SDS011;4452;50.756;4.472;2023-08-31T05:54:24;15.13;;;5.97;;
8831;SDS011;4452;50.756;4.472;2023-08-31T05:56:50;16.92;;;6.10;;
8831;SDS011;4452;50.756;4.472;2023-08-31T05:59:15;15.45;;;5.72;;
8831;SDS011;4452;50.756;4.472;2023-08-31T06:01:42;22.42;;;6.45;;
8831;SDS011;4452;50.756;4.472;2023-08-31T06:04:08;15.13;;;5.57;;
8831;SDS011;4452;50.756;4.472;2023-08-31T06:06:35;17.88;;;5.40;;
8831;SDS011;4452;50.756;4.472;2023-08-31T06:09:01;11.70;;;5.10;;
8831;SDS011;4452;50.756;4.472;2023-08-31T06:11:28;10.80;;;4.47;;
8831;SDS011;4452;50.756;4.472;2023-08-31T06:13:54;22.58;;;6.72;;
8831;SDS011;4452;50.756;4.472;2023-08-31T06:16:20;14.65;;;5.35;;
8831;SDS011;4452;50.756;4.472;2023-08-31T06:18:45;19.17;;;6.07;;
8831;SDS011;4452;50.756;4.472;2023-08-31T06:21:11;10.93;;;4.35;;
8831;SDS011;4452;50.756;4.472;2023-08-31T06:23:37;14.40;;;5.68;;
8831;SDS011;4452;50.756;4.472;2023-08-31T06:26:03;14.10;;;5.55;;
8831;SDS011;4452;50.756;4.472;2023-08-31T06:28:28;12.55;;;5.00;;
8831;SDS011;4452;50.756;4.472;2023-08-31T06:30:54;13.82;;;5.20;;
8831;SDS011;4452;50.756;4.472;2023-08-31T06:33:20;18.80;;;6.18;;
8831;SDS011;4452;50.756;4.472;2023-08-31T06:35:47;10.73;;;3.88;;
8831;SDS011;4452;50.756;4.472;2023-08-31T06:38:17;14.93;;;4.85;;
8831;SDS011;4452;50.756;4.472;2023-08-31T06:40:43;13.48;;;4.78;;
8831;SDS011;4452;50.756;4.472;2023-08-31T06:43:09;15.20;;;5.07;;
8831;SDS011;4452;50.756;4.472;2023-08-31T06:45:35;15.25;;;5.28;;
8831;SDS011;4452;50.756;4.472;2023-08-31T06:48:01;17.35;;;5.93;;
8831;SDS011;4452;50.756;4.472;2023-08-31T06:50:28;12.45;;;4.30;;
8831;SDS011;4452;50.756;4.472;2023-08-31T06:52:53;9.63;;;3.53;;
8831;SDS011;4452;50.756;4.472;2023-08-31T06:55:19;11.27;;;5.18;;
8831;SDS011;4452;50.756;4.472;2023-08-31T06:57:45;13.57;;;5.13;;
8831;SDS011;4452;50.756;4.472;2023-08-31T07:00:11;9.60;;;4.45;;
8831;SDS011;4452;50.756;4.472;2023-08-31T07:02:39;11.32;;;6.00;;
8831;SDS011;4452;50.756;4.472;2023-08-31T07:05:06;21.90;;;5.28;;
8831;SDS011;4452;50.756;4.472;2023-08-31T07:07:32;13.80;;;5.75;;
8831;SDS011;4452;50.756;4.472;2023-08-31T07:09:58;16.33;;;5.20;;
8831;SDS011;4452;50.756;4.472;2023-08-31T07:12:24;19.55;;;5.57;;
8831;SDS011;4452;50.756;4.472;2023-08-31T07:14:50;11.48;;;5.05;;
8831;SDS011;4452;50.756;4.472;2023-08-31T07:17:19;13.15;;;5.10;;
8831;SDS011;4452;50.756;4.472;2023-08-31T07:19:44;13.38;;;5.30;;
8831;SDS011;4452;50.756;4.472;2023-08-31T07:22:10;11.20;;;3.83;;
8831;SDS011;4452;50.756;4.472;2023-08-31T07:24:37;12.25;;;4.90;;
8831;SDS011;4452;50.756;4.472;2023-08-31T07:27:03;23.50;;;6.45;;
8831;SDS011;4452;50.756;4.472;2023-08-31T07:29:29;12.75;;;4.15;;
8831;SDS011;4452;50.756;4.472;2023-08-31T07:31:55;19.33;;;4.93;;
8831;SDS011;4452;50.756;4.472;2023-08-31T07:34:21;15.90;;;5.63;;
8831;SDS011;4452;50.756;4.472;2023-08-31T07:36:47;21.08;;;5.28;;
8831;SDS011;4452;50.756;4.472;2023-08-31T07:39:13;9.48;;;4.10;;
8831;SDS011;4452;50.756;4.472;2023-08-31T07:41:38;14.10;;;4.30;;
8831;SDS011;4452;50.756;4.472;2023-08-31T07:44:05;10.15;;;4.32;;
8831;SDS011;4452;50.756;4.472;2023-08-31T07:46:31;8.00;;;4.45;;
8831;SDS011;4452;50.756;4.472;2023-08-31T07:48:56;5.05;;;2.80;;
8831;SDS011;4452;50.756;4.472;2023-08-31T07:51:22;8.85;;;4.07;;
8831;SDS011;4452;50.756;4.472;2023-08-31T07:53:49;13.95;;;4.97;;
8831;SDS011;4452;50.756;4.472;2023-08-31T07:56:15;9.98;;;4.40;;
8831;SDS011;4452;50.756;4.472;2023-08-31T07:58:40;19.00;;;5.13;;
8831;SDS011;4452;50.756;4.472;2023-08-31T08:01:06;9.75;;;4.43;;
8831;SDS011;4452;50.756;4.472;2023-08-31T08:03:32;6.63;;;3.38;;
8831;SDS011;4452;50.756;4.472;2023-08-31T08:05:57;11.15;;;4.32;;
8831;SDS011;4452;50.756;4.472;2023-08-31T08:08:23;8.77;;;4.60;;
8831;SDS011;4452;50.756;4.472;2023-08-31T08:10:52;8.90;;;4.47;;
8831;SDS011;4452;50.756;4.472;2023-08-31T08:13:18;14.15;;;4.47;;
8831;SDS011;4452;50.756;4.472;2023-08-31T08:15:45;5.88;;;4.00;;
8831;SDS011;4452;50.756;4.472;2023-08-31T08:18:11;9.13;;;4.22;;
8831;SDS011;4452;50.756;4.472;2023-08-31T08:20:36;8.75;;;4.95;;
8831;SDS011;4452;50.756;4.472;2023-08-31T08:23:02;7.00;;;4.00;;
8831;SDS011;4452;50.756;4.472;2023-08-31T08:25:28;5.68;;;4.10;;
8831;SDS011;4452;50.756;4.472;2023-08-31T08:27:54;8.32;;;3.80;;
8831;SDS011;4452;50.756;4.472;2023-08-31T08:30:19;10.63;;;5.30;;
8831;SDS011;4452;50.756;4.472;2023-08-31T08:32:45;9.63;;;3.63;;
8831;SDS011;4452;50.756;4.472;2023-08-31T08:35:11;9.52;;;4.30;;
8831;SDS011;4452;50.756;4.472;2023-08-31T08:37:36;7.95;;;3.85;;
8831;SDS011;4452;50.756;4.472;2023-08-31T08:40:02;10.73;;;4.97;;
8831;SDS011;4452;50.756;4.472;2023-08-31T08:42:31;9.02;;;4.25;;
8831;SDS011;4452;50.756;4.472;2023-08-31T08:45:03;8.45;;;4.00;;
8831;SDS011;4452;50.756;4.472;2023-08-31T08:47:33;6.35;;;4.15;;
8831;SDS011;4452;50.756;4.472;2023-08-31T08:50:00;12.63;;;4.53;;
8831;SDS011;4452;50.756;4.472;2023-08-31T08:52:27;5.28;;;3.63;;
8831;SDS011;4452;50.756;4.472;2023-08-31T08:54:54;8.15;;;3.40;;
8831;SDS011;4452;50.756;4.472;2023-08-31T08:57:21;10.93;;;4.85;;
8831;SDS011;4452;50.756;4.472;2023-08-31T08:59:47;7.38;;;3.20;;
8831;SDS011;4452;50.756;4.472;2023-08-31T09:02:12;12.13;;;5.20;;
8831;SDS011;4452;50.756;4.472;2023-08-31T09:04:38;14.98;;;4.63;;
8831;SDS011;4452;50.756;4.472;2023-08-31T09:07:04;8.27;;;3.83;;
8831;SDS011;4452;50.756;4.472;2023-08-31T09:09:29;11.13;;;4.28;;
8831;SDS011;4452;50.756;4.472;2023-08-31T09:11:55;6.63;;;3.88;;
8831;SDS011;4452;50.756;4.472;2023-08-31T09:14:21;8.05;;;4.00;;
8831;SDS011;4452;50.756;4.472;2023-08-31T09:16:51;10.70;;;4.20;;
8831;SDS011;4452;50.756;4.472;2023-08-31T09:19:26;9.48;;;4.10;;
8831;SDS011;4452;50.756;4.472;2023-08-31T09:21:55;6.43;;;4.20;;
8831;SDS011;4452;50.756;4.472;2023-08-31T09:24:21;8.48;;;4.28;;
8831;SDS011;4452;50.756;4.472;2023-08-31T09:26:50;13.35;;;4.13;;
8831;SDS011;4452;50.756;4.472;2023-08-31T09:29:23;7.90;;;3.97;;
8831;SDS011;4452;50.756;4.472;2023-08-31T09:31:49;7.15;;;3.88;;
8831;SDS011;4452;50.756;4.472;2023-08-31T09:34:16;9.43;;;4.25;;
8831;SDS011;4452;50.756;4.472;2023-08-31T09:36:43;10.93;;;4.30;;
8831;SDS011;4452;50.756;4.472;2023-08-31T09:39:09;9.35;;;4.10;;
8831;SDS011;4452;50.756;4.472;2023-08-31T09:41:51;12.23;;;4.70;;
8831;SDS011;4452;50.756;4.472;2023-08-31T09:44:19;9.85;;;4.47;;
8831;SDS011;4452;50.756;4.472;2023-08-31T09:46:46;12.63;;;4.53;;
8831;SDS011;4452;50.756;4.472;2023-08-31T09:49:15;5.60;;;3.30;;
8831;SDS011;4452;50.756;4.472;2023-08-31T09:51:45;3.63;;;3.28;;
8831;SDS011;4452;50.756;4.472;2023-08-31T09:54:14;10.20;;;3.78;;
8831;SDS011;4452;50.756;4.472;2023-08-31T09:56:45;8.98;;;3.83;;
8831;SDS011;4452;50.756;4.472;2023-08-31T09:59:12;5.03;;;3.17;;
8831;SDS011;4452;50.756;4.472;2023-08-31T10:01:40;8.40;;;3.80;;
8831;SDS011;4452;50.756;4.472;2023-08-31T10:04:07;8.00;;;3.83;;
8831;SDS011;4452;50.756;4.472;2023-08-31T10:06:38;8.32;;;3.65;;
8831;SDS011;4452;50.756;4.472;2023-08-31T10:09:04;8.93;;;3.50;;
8831;SDS011;4452;50.756;4.472;2023-08-31T10:11:31;4.90;;;3.45;;
8831;SDS011;4452;50.756;4.472;2023-08-31T10:13:58;11.40;;;3.67;;
8831;SDS011;4452;50.756;4.472;2023-08-31T10:16:27;8.18;;;3.85;;
8831;SDS011;4452;50.756;4.472;2023-08-31T10:18:59;6.90;;;3.45;;
8831;SDS011;4452;50.756;4.472;2023-08-31T10:23:56;4.68;;;2.92;;
8831;SDS011;4452;50.756;4.472;2023-08-31T10:26:25;8.90;;;3.72;;
8831;SDS011;4452;50.756;4.472;2023-08-31T10:28:54;9.27;;;3.70;;
8831;SDS011;4452;50.756;4.472;2023-08-31T10:31:22;5.57;;;3.20;;
8831;SDS011;4452;50.756;4.472;2023-08-31T10:34:01;5.95;;;3.25;;
8831;SDS011;4452;50.756;4.472;2023-08-31T10:39:18;6.97;;;3.40;;
8831;SDS011;4452;50.756;4.472;2023-08-31T10:41:55;7.28;;;3.67;;
8831;SDS011;4452;50.756;4.472;2023-08-31T10:44:30;7.60;;;3.30;;
8831;SDS011;4452;50.756;4.472;2023-08-31T10:47:05;10.70;;;3.30;;
8831;SDS011;4452;50.756;4.472;2023-08-31T10:49:35;9.63;;;3.42;;
8831;SDS011;4452;50.756;4.472;2023-08-31T10:52:17;3.83;;;3.17;;
8831;SDS011;4452;50.756;4.472;2023-08-31T10:54:46;9.88;;;3.25;;
8831;SDS011;4452;50.756;4.472;2023-08-31T10:57:13;6.55;;;2.90;;
8831;SDS011;4452;50.756;4.472;2023-08-31T10:59:51;12.57;;;3.40;;
8831;SDS011;4452;50.756;4.472;2023-08-31T11:02:38;7.30;;;3.33;;
8831;SDS011;4452;50.756;4.472;2023-08-31T11:05:14;5.28;;;3.10;;
8831;SDS011;4452;50.756;4.472;2023-08-31T11:07:44;6.43;;;3.20;;
8831;SDS011;4452;50.756;4.472;2023-08-31T11:10:19;7.75;;;3.40;;
8831;SDS011;4452;50.756;4.472;2023-08-31T11:12:55;7.30;;;3.00;;
8831;SDS011;4452;50.756;4.472;2023-08-31T11:15:25;7.40;;;3.40;;
8831;SDS011;4452;50.756;4.472;2023-08-31T11:17:52;4.45;;;2.78;;
8831;SDS011;4452;50.756;4.472;2023-08-31T11:20:20;6.00;;;3.10;;
8831;SDS011;4452;50.756;4.472;2023-08-31T11:22:47;4.30;;;2.50;;
8831;SDS011;4452;50.756;4.472;2023-08-31T11:25:15;5.43;;;2.58;;
8831;SDS011;4452;50.756;4.472;2023-08-31T11:27:55;7.10;;;2.85;;
8831;SDS011;4452;50.756;4.472;2023-08-31T11:30:28;6.88;;;3.33;;
8831;SDS011;4452;50.756;4.472;2023-08-31T11:33:04;4.63;;;2.58;;
8831;SDS011;4452;50.756;4.472;2023-08-31T11:35:41;8.45;;;3.17;;
8831;SDS011;4452;50.756;4.472;2023-08-31T11:38:16;7.43;;;2.95;;
8831;SDS011;4452;50.756;4.472;2023-08-31T11:40:43;3.97;;;3.17;;
8831;SDS011;4452;50.756;4.472;2023-08-31T11:43:14;2.60;;;2.40;;
8831;SDS011;4452;50.756;4.472;2023-08-31T11:45:44;5.90;;;3.08;;
8831;SDS011;4452;50.756;4.472;2023-08-31T11:48:12;4.00;;;2.50;;
8831;SDS011;4452;50.756;4.472;2023-08-31T11:50:41;5.95;;;2.60;;
8831;SDS011;4452;50.756;4.472;2023-08-31T11:53:09;2.58;;;2.22;;
8831;SDS011;4452;50.756;4.472;2023-08-31T11:55:48;6.15;;;3.10;;
8831;SDS011;4452;50.756;4.472;2023-08-31T11:58:18;4.82;;;2.70;;
8831;SDS011;4452;50.756;4.472;2023-08-31T12:00:45;12.23;;;2.72;;
8831;SDS011;4452;50.756;4.472;2023-08-31T12:03:19;5.57;;;3.22;;
8831;SDS011;4452;50.756;4.472;2023-08-31T12:05:45;3.92;;;2.40;;
8831;SDS011;4452;50.756;4.472;2023-08-31T12:08:12;4.32;;;2.45;;
8831;SDS011;4452;50.756;4.472;2023-08-31T12:10:41;7.10;;;3.45;;
8831;SDS011;4452;50.756;4.472;2023-08-31T12:13:08;5.22;;;3.03;;
8831;SDS011;4452;50.756;4.472;2023-08-31T12:15:38;4.70;;;2.30;;
8831;SDS011;4452;50.756;4.472;2023-08-31T12:18:12;3.35;;;2.38;;
8831;SDS011;4452;50.756;4.472;2023-08-31T12:20:47;4.72;;;2.67;;
8831;SDS011;4452;50.756;4.472;2023-08-31T12:23:18;6.60;;;2.40;;
8831;SDS011;4452;50.756;4.472;2023-08-31T12:25:49;4.03;;;2.40;;
8831;SDS011;4452;50.756;4.472;2023-08-31T12:28:16;4.60;;;2.45;;
8831;SDS011;4452;50.756;4.472;2023-08-31T12:30:46;8.38;;;2.60;;
8831;SDS011;4452;50.756;4.472;2023-08-31T12:33:16;4.18;;;2.90;;
8831;SDS011;4452;50.756;4.472;2023-08-31T12:35:43;5.57;;;2.60;;
8831;SDS011;4452;50.756;4.472;2023-08-31T12:38:08;9.18;;;2.70;;
8831;SDS011;4452;50.756;4.472;2023-08-31T12:40:34;3.75;;;2.42;;
8831;SDS011;4452;50.756;4.472;2023-08-31T12:43:01;7.07;;;2.85;;
8831;SDS011;4452;50.756;4.472;2023-08-31T12:45:29;4.57;;;2.50;;
8831;SDS011;4452;50.756;4.472;2023-08-31T12:47:58;6.25;;;2.55;;
8831;SDS011;4452;50.756;4.472;2023-08-31T12:50:27;2.60;;;2.35;;
8831;SDS011;4452;50.756;4.472;2023-08-31T12:52:56;6.07;;;2.80;;
8831;SDS011;4452;50.756;4.472;2023-08-31T12:55:25;6.35;;;2.83;;
8831;SDS011;4452;50.756;4.472;2023-08-31T12:57:56;2.80;;;2.47;;
8831;SDS011;4452;50.756;4.472;2023-08-31T13:00:22;4.70;;;2.35;;
8831;SDS011;4452;50.756;4.472;2023-08-31T13:02:49;3.67;;;2.25;;
8831;SDS011;4452;50.756;4.472;2023-08-31T13:05:16;4.13;;;2.40;;
8831;SDS011;4452;50.756;4.472;2023-08-31T13:07:42;5.47;;;2.35;;
8831;SDS011;4452;50.756;4.472;2023-08-31T13:10:07;8.40;;;2.58;;
8831;SDS011;4452;50.756;4.472;2023-08-31T13:12:33;5.25;;;2.60;;
8831;SDS011;4452;50.756;4.472;2023-08-31T13:14:59;3.08;;;2.17;;
8831;SDS011;4452;50.756;4.472;2023-08-31T13:17:26;5.45;;;2.50;;
8831;SDS011;4452;50.756;4.472;2023-08-31T13:19:52;3.25;;;2.40;;
8831;SDS011;4452;50.756;4.472;2023-08-31T13:22:18;2.88;;;2.58;;
8831;SDS011;4452;50.756;4.472;2023-08-31T13:24:45;4.15;;;2.63;;
8831;SDS011;4452;50.756;4.472;2023-08-31T13:27:10;4.20;;;2.50;;
8831;SDS011;4452;50.756;4.472;2023-08-31T13:29:36;7.18;;;2.70;;
8831;SDS011;4452;50.756;4.472;2023-08-31T13:32:02;3.70;;;2.50;;
8831;SDS011;4452;50.756;4.472;2023-08-31T13:34:28;3.97;;;2.33;;
8831;SDS011;4452;50.756;4.472;2023-08-31T13:36:54;5.45;;;2.72;;
8831;SDS011;4452;50.756;4.472;2023-08-31T13:39:21;8.00;;;3.05;;
8831;SDS011;4452;50.756;4.472;2023-08-31T13:41:49;6.50;;;2.88;;
8831;SDS011;4452;50.756;4.472;2023-08-31T13:44:16;4.97;;;2.90;;
8831;SDS011;4452;50.756;4.472;2023-08-31T13:46:43;5.47;;;3.05;;
8831;SDS011;4452;50.756;4.472;2023-08-31T13:49:08;6.97;;;2.92;;
8831;SDS011;4452;50.756;4.472;2023-08-31T13:51:34;6.72;;;3.03;;
8831;SDS011;4452;50.756;4.472;2023-08-31T13:54:01;8.20;;;3.25;;
8831;SDS011;4452;50.756;4.472;2023-08-31T13:56:28;5.20;;;2.53;;
8831;SDS011;4452;50.756;4.472;2023-08-31T13:58:54;6.63;;;3.28;;
8831;SDS011;4452;50.756;4.472;2023-08-31T14:01:20;8.70;;;3.10;;
8831;SDS011;4452;50.756;4.472;2023-08-31T14:03:46;7.35;;;3.08;;
8831;SDS011;4452;50.756;4.472;2023-08-31T14:06:11;4.78;;;3.10;;
8831;SDS011;4452;50.756;4.472;2023-08-31T14:08:39;5.53;;;3.15;;
8831;SDS011;4452;50.756;4.472;2023-08-31T14:11:05;7.15;;;3.70;;
8831;SDS011;4452;50.756;4.472;2023-08-31T14:13:31;4.85;;;3.13;;
8831;SDS011;4452;50.756;4.472;2023-08-31T14:15:57;5.32;;;2.80;;
8831;SDS011;4452;50.756;4.472;2023-08-31T14:18:23;9.20;;;3.13;;
8831;SDS011;4452;50.756;4.472;2023-08-31T14:20:50;7.32;;;3.40;;
8831;SDS011;4452;50.756;4.472;2023-08-31T14:23:19;7.85;;;3.35;;
8831;SDS011;4452;50.756;4.472;2023-08-31T14:25:48;6.20;;;3.40;;
8831;SDS011;4452;50.756;4.472;2023-08-31T14:28:14;11.25;;;3.40;;
8831;SDS011;4452;50.756;4.472;2023-08-31T14:30:39;8.95;;;3.33;;
8831;SDS011;4452;50.756;4.472;2023-08-31T14:33:05;5.82;;;3.05;;
8831;SDS011;4452;50.756;4.472;2023-08-31T14:35:31;5.38;;;3.03;;
8831;SDS011;4452;50.756;4.472;2023-08-31T14:37:57;7.90;;;2.95;;
8831;SDS011;4452;50.756;4.472;2023-08-31T14:40:26;4.70;;;2.70;;
8831;SDS011;4452;50.756;4.472;2023-08-31T14:42:51;7.70;;;3.08;;
8831;SDS011;4452;50.756;4.472;2023-08-31T14:45:17;7.90;;;3.20;;
8831;SDS011;4452;50.756;4.472;2023-08-31T14:47:43;8.82;;;3.22;;
8831;SDS011;4452;50.756;4.472;2023-08-31T14:50:08;8.68;;;3.08;;
8831;SDS011;4452;50.756;4.472;2023-08-31T14:52:34;4.00;;;3.15;;
8831;SDS011;4452;50.756;4.472;2023-08-31T14:55:00;7.80;;;3.33;;
8831;SDS011;4452;50.756;4.472;2023-08-31T14:57:28;9.90;;;3.40;;
8831;SDS011;4452;50.756;4.472;2023-08-31T14:59:54;11.52;;;3.22;;
8831;SDS011;4452;50.756;4.472;2023-08-31T15:02:23;11.07;;;3.22;;
8831;SDS011;4452;50.756;4.472;2023-08-31T15:04:49;6.65;;;3.20;;
8831;SDS011;4452;50.756;4.472;2023-08-31T15:07:16;9.25;;;3.90;;
8831;SDS011;4452;50.756;4.472;2023-08-31T15:09:42;7.80;;;3.25;;
8831;SDS011;4452;50.756;4.472;2023-08-31T15:12:09;5.53;;;3.10;;
8831;SDS011;4452;50.756;4.472;2023-08-31T15:14:35;10.80;;;3.55;;
8831;SDS011;4452;50.756;4.472;2023-08-31T15:17:03;5.72;;;2.83;;
8831;SDS011;4452;50.756;4.472;2023-08-31T15:19:28;10.05;;;3.33;;
8831;SDS011;4452;50.756;4.472;2023-08-31T15:21:54;8.20;;;3.13;;
8831;SDS011;4452;50.756;4.472;2023-08-31T15:24:20;5.13;;;2.60;;
8831;SDS011;4452;50.756;4.472;2023-08-31T15:26:46;6.53;;;2.90;;
8831;SDS011;4452;50.756;4.472;2023-08-31T15:29:11;6.07;;;2.90;;
8831;SDS011;4452;50.756;4.472;2023-08-31T15:31:37;10.07;;;3.40;;
8831;SDS011;4452;50.756;4.472;2023-08-31T15:34:03;10.23;;;3.15;;